Time;durP1;ratioP1;P1;durP2;ratioP2;P2;SDS_P1;SDS_P2;PMS_P1;PMS_P2;Temp;Humidity;BMP_temperature;BMP_pressure;BME280_temperature;BME280_humidity;BME280_pressure;Samples;Min_cycle;Max_cycle;Signal;HPM_P1;HPM_P2
2022/04/21 00:01:24;;;;;;;11.57;7.68;;;9.40;99.90;;;;;;5013940;28;20628;-69
2022/04/21 00:03:49;;;;;;;13.73;7.45;;;9.40;99.90;;;;;;5014035;28;20045;-68
2022/04/21 00:06:16;;;;;;;15.80;8.40;;;9.40;99.90;;;;;;5012786;28;20467;-69
2022/04/21 00:08:42;;;;;;;18.63;9.77;;;9.40;99.90;;;;;;5012825;28;20408;-69
2022/04/21 00:11:07;;;;;;;14.55;8.60;;;9.40;99.90;;;;;;5013772;28;20049;-69
2022/04/21 00:13:34;;;;;;;13.13;8.40;;;9.30;99.90;;;;;;5012610;28;20038;-69
2022/04/21 00:15:59;;;;;;;14.43;8.95;;;9.30;99.90;;;;;;5012659;28;20492;-69
2022/04/21 00:18:25;;;;;;;14.57;9.25;;;9.30;99.90;;;;;;5013945;28;20085;-69
2022/04/21 00:20:51;;;;;;;15.43;9.13;;;9.30;99.90;;;;;;5012217;28;20412;-69
2022/04/21 00:23:29;;;;;;;16.92;10.85;;;9.30;99.90;;;;;;5013624;28;20119;-70
2022/04/21 00:26:00;;;;;;;15.73;9.57;;;9.30;99.90;;;;;;5012400;28;20121;-70
2022/04/21 00:28:28;;;;;;;13.93;8.70;;;9.30;99.90;;;;;;5013722;28;20049;-70
2022/04/21 00:30:54;;;;;;;14.48;9.65;;;9.20;99.90;;;;;;5011988;28;20049;-70
2022/04/21 00:33:20;;;;;;;13.98;8.98;;;9.20;99.90;;;;;;5013331;28;20056;-70
2022/04/21 00:35:45;;;;;;;16.20;9.50;;;9.20;99.90;;;;;;5013294;28;20037;-70
2022/04/21 00:38:11;;;;;;;15.63;9.30;;;9.30;99.90;;;;;;5012443;28;20073;-70
2022/04/21 00:40:37;;;;;;;16.08;9.95;;;9.30;99.90;;;;;;5011782;28;20034;-70
2022/04/21 00:43:02;;;;;;;15.48;10.00;;;9.30;99.90;;;;;;5012102;28;20447;-70
2022/04/21 00:45:29;;;;;;;14.13;9.68;;;9.30;99.90;;;;;;5012268;28;20447;-70
2022/04/21 00:47:56;;;;;;;13.65;9.80;;;9.20;99.90;;;;;;5013311;28;20446;-70
2022/04/21 00:50:27;;;;;;;12.30;9.82;;;9.20;99.90;;;;;;5011589;28;20049;-70
2022/04/21 00:52:54;;;;;;;16.38;10.50;;;9.20;99.90;;;;;;5012628;28;20507;-70
2022/04/21 00:55:21;;;;;;;13.77;9.48;;;9.20;99.90;;;;;;5011664;28;20052;-70
2022/04/21 00:57:48;;;;;;;12.98;10.10;;;9.20;99.90;;;;;;5011781;28;20057;-70
2022/04/21 01:00:15;;;;;;;13.65;8.93;;;9.20;99.90;;;;;;5011441;28;20108;-70
2022/04/21 01:02:50;;;;;;;14.25;10.25;;;9.20;99.90;;;;;;5011575;28;20439;-70
2022/04/21 01:05:31;;;;;;;15.82;10.20;;;9.10;99.90;;;;;;5011917;28;20396;-70
2022/04/21 01:08:01;;;;;;;16.08;9.88;;;9.10;99.90;;;;;;5011911;28;20065;-70
2022/04/21 01:10:29;;;;;;;11.20;8.57;;;9.20;99.90;;;;;;5012559;28;20069;-70
2022/04/21 01:12:55;;;;;;;17.05;10.63;;;9.10;99.90;;;;;;5011796;28;20046;-70
2022/04/21 01:15:21;;;;;;;14.57;9.50;;;9.10;99.90;;;;;;5012501;28;20092;-70
2022/04/21 01:17:47;;;;;;;17.13;10.07;;;9.20;99.90;;;;;;5011433;28;20500;-70
2022/04/21 01:20:23;;;;;;;12.75;9.75;;;9.10;99.90;;;;;;5012515;28;20045;-69
2022/04/21 01:22:49;;;;;;;15.02;10.40;;;9.10;99.90;;;;;;5011396;28;20042;-70
2022/04/21 01:25:15;;;;;;;14.30;9.85;;;9.00;99.90;;;;;;5012550;28;20069;-70
2022/04/21 01:27:42;;;;;;;14.43;9.88;;;9.00;99.90;;;;;;5012500;28;20120;-70
2022/04/21 01:30:09;;;;;;;13.05;9.38;;;9.00;99.90;;;;;;5011133;28;20618;-69
2022/04/21 01:32:38;;;;;;;15.10;10.15;;;8.90;99.90;;;;;;5011452;28;20061;-70
2022/04/21 01:35:08;;;;;;;15.63;10.63;;;8.90;99.90;;;;;;5011092;28;20037;-70
2022/04/21 01:43:04;;;;;;;15.93;9.15;;;9.00;99.90;;;;;;5011073;28;20053;-70
2022/04/21 01:45:30;;;;;;;14.88;10.15;;;9.00;99.90;;;;;;5012322;28;20046;-70
2022/04/21 01:47:56;;;;;;;15.60;10.38;;;9.00;99.90;;;;;;5012334;28;20078;-70
2022/04/21 01:50:26;;;;;;;12.20;9.85;;;9.00;99.90;;;;;;5012074;28;20069;-70
2022/04/21 01:52:52;;;;;;;16.67;10.15;;;9.00;99.90;;;;;;5012115;28;20050;-70
2022/04/21 01:55:17;;;;;;;17.40;10.43;;;9.00;99.90;;;;;;5012154;28;20044;-70
2022/04/21 01:57:43;;;;;;;14.63;11.30;;;9.10;99.90;;;;;;5010878;28;20045;-70
2022/04/21 02:00:09;;;;;;;15.18;9.85;;;9.10;99.90;;;;;;5010624;28;20042;-70
2022/04/21 02:02:35;;;;;;;12.85;10.05;;;9.00;99.90;;;;;;5011855;28;20048;-70
2022/04/21 02:05:01;;;;;;;17.75;11.07;;;9.10;99.90;;;;;;5012026;28;20037;-70
2022/04/21 02:07:27;;;;;;;18.52;11.27;;;9.00;99.90;;;;;;5010705;28;20048;-69
2022/04/21 02:09:54;;;;;;;16.83;10.90;;;9.00;99.90;;;;;;5011897;28;20117;-70
2022/04/21 02:12:21;;;;;;;15.95;10.57;;;8.90;99.90;;;;;;5010953;28;20492;-70
2022/04/21 02:14:47;;;;;;;15.38;10.10;;;9.00;99.90;;;;;;5011779;28;20557;-70
2022/04/21 02:17:13;;;;;;;17.60;10.32;;;8.90;99.90;;;;;;5010691;28;20045;-70
2022/04/21 02:19:39;;;;;;;18.15;11.15;;;8.90;99.90;;;;;;5011941;28;20042;-70
2022/04/21 02:22:04;;;;;;;18.98;11.55;;;8.80;99.90;;;;;;5010334;28;20141;-70
2022/04/21 02:24:30;;;;;;;16.10;10.52;;;8.80;99.90;;;;;;5011779;28;20042;-70
2022/04/21 02:26:55;;;;;;;15.68;10.35;;;8.80;99.90;;;;;;5010640;28;20562;-70
2022/04/21 02:29:21;;;;;;;17.13;10.77;;;8.70;99.90;;;;;;5010619;28;20500;-70
2022/04/21 02:31:46;;;;;;;16.98;10.48;;;8.70;99.90;;;;;;5010286;28;20169;-70
2022/04/21 02:34:12;;;;;;;15.77;9.98;;;8.70;99.90;;;;;;5011545;28;20038;-70
2022/04/21 02:36:38;;;;;;;14.63;9.82;;;8.70;99.90;;;;;;5010456;28;20046;-70
2022/04/21 02:39:04;;;;;;;15.95;11.10;;;8.60;99.90;;;;;;5010545;28;20034;-70
2022/04/21 02:41:30;;;;;;;15.50;10.40;;;8.60;99.90;;;;;;5011972;28;20076;-70
2022/04/21 02:43:56;;;;;;;15.45;10.48;;;8.60;99.90;;;;;;5011541;28;20034;-70
2022/04/21 02:46:27;;;;;;;13.07;9.85;;;8.60;99.90;;;;;;5010050;28;20491;-70
2022/04/21 02:48:54;;;;;;;17.35;10.30;;;8.60;99.90;;;;;;5011685;28;20037;-70
2022/04/21 02:51:19;;;;;;;16.00;10.05;;;8.60;99.90;;;;;;5011344;28;20046;-70
2022/04/21 02:59:13;;;;;;;12.23;9.32;;;8.50;99.90;;;;;;5011637;28;20042;-70
2022/04/21 03:01:39;;;;;;;16.10;9.95;;;8.50;99.90;;;;;;5010163;28;20113;-70
2022/04/21 03:04:04;;;;;;;13.65;9.50;;;8.40;99.90;;;;;;5011610;28;20045;-70
2022/04/21 03:06:30;;;;;;;15.75;9.40;;;8.40;99.90;;;;;;5011596;28;20045;-70
2022/04/21 03:08:55;;;;;;;14.15;10.75;;;8.40;99.90;;;;;;5011433;28;20041;-70
2022/04/21 03:11:21;;;;;;;15.05;9.82;;;8.40;99.90;;;;;;5011098;28;20029;-70
2022/04/21 03:13:46;;;;;;;17.75;10.23;;;8.30;99.90;;;;;;5008646;28;20053;-70
2022/04/21 03:16:12;;;;;;;15.70;10.02;;;8.30;99.90;;;;;;5018576;28;20069;-70
2022/04/21 03:18:37;;;;;;;16.55;10.18;;;8.30;99.90;;;;;;5026575;28;20088;-70
2022/04/21 03:26:31;;;;;;;14.60;9.27;;;8.30;99.90;;;;;;5026245;28;20049;-70
2022/04/21 03:28:56;;;;;;;11.88;8.90;;;8.20;99.90;;;;;;5034537;28;20041;-70
2022/04/21 03:31:23;;;;;;;15.13;10.27;;;8.20;99.90;;;;;;5033209;28;20045;-70
2022/04/21 03:33:50;;;;;;;14.73;10.25;;;8.20;99.90;;;;;;5034241;28;20507;-70
2022/04/21 03:36:16;;;;;;;15.63;9.90;;;8.20;99.90;;;;;;5033095;28;20456;-70
2022/04/21 03:38:42;;;;;;;13.52;9.75;;;8.10;99.90;;;;;;5034190;28;20076;-70
2022/04/21 03:41:07;;;;;;;14.63;9.75;;;8.10;99.90;;;;;;5033967;28;20039;-70
2022/04/21 03:43:33;;;;;;;14.82;8.90;;;8.10;99.90;;;;;;5034369;28;20033;-70
2022/04/21 03:45:59;;;;;;;11.70;8.60;;;8.00;99.90;;;;;;5032964;28;20038;-70
2022/04/21 03:48:24;;;;;;;13.20;8.63;;;8.00;99.90;;;;;;5032881;28;20048;-70
2022/04/21 03:50:50;;;;;;;14.63;9.80;;;8.00;99.90;;;;;;5032538;28;20414;-70
2022/04/21 03:53:16;;;;;;;15.63;10.55;;;8.00;99.90;;;;;;5034003;28;20098;-70
2022/04/21 03:55:42;;;;;;;11.23;8.57;;;8.00;99.90;;;;;;5033887;28;20041;-70
2022/04/21 03:58:07;;;;;;;13.13;8.82;;;8.00;99.90;;;;;;5032987;28;20053;-70
2022/04/21 04:00:33;;;;;;;12.48;8.45;;;7.90;99.90;;;;;;5032388;28;20175;-70
2022/04/21 04:02:59;;;;;;;13.40;8.98;;;7.90;99.90;;;;;;5034023;28;20033;-70
2022/04/21 04:05:24;;;;;;;12.73;8.85;;;7.90;99.90;;;;;;5033770;28;20048;-69
2022/04/21 04:10:52;;;;;;;13.02;8.90;;;7.90;99.90;;;;;;5032162;28;20140;-70
2022/04/21 04:13:22;;;;;;;14.90;8.45;;;7.90;99.90;;;;;;5033841;28;20041;-70
2022/04/21 04:15:49;;;;;;;10.75;8.70;;;7.90;99.90;;;;;;5033671;28;20399;-70
2022/04/21 04:18:19;;;;;;;10.80;7.57;;;7.90;99.90;;;;;;5033483;28;20132;-70
2022/04/21 04:20:46;;;;;;;12.77;8.43;;;7.90;99.90;;;;;;5031872;28;20045;-70
2022/04/21 04:23:17;;;;;;;12.68;8.93;;;7.90;99.90;;;;;;5032373;28;20041;-70
2022/04/21 04:25:42;;;;;;;12.57;8.38;;;7.90;99.90;;;;;;5032323;28;20132;-70
2022/04/21 04:28:08;;;;;;;12.38;8.70;;;7.90;99.90;;;;;;5032058;28;20163;-70
2022/04/21 04:30:34;;;;;;;11.15;7.63;;;7.90;99.90;;;;;;5033034;28;20049;-70
2022/04/21 04:32:59;;;;;;;11.43;8.18;;;7.90;99.90;;;;;;5033205;28;20065;-70
2022/04/21 04:35:25;;;;;;;12.65;8.45;;;7.90;99.90;;;;;;5032892;28;20037;-71
2022/04/21 04:37:52;;;;;;;11.07;8.32;;;7.90;99.90;;;;;;5033280;28;20048;-71
2022/04/21 04:40:18;;;;;;;13.23;8.30;;;7.90;99.90;;;;;;5032878;28;20080;-71
2022/04/21 04:42:44;;;;;;;13.93;8.65;;;7.80;99.90;;;;;;5031828;28;20041;-71
2022/04/21 04:47:53;;;;;;;13.32;9.55;;;7.80;99.90;;;;;;5032967;28;20057;-71
2022/04/21 04:50:19;;;;;;;13.55;8.88;;;7.80;99.90;;;;;;5031637;28;20376;-71
2022/04/21 04:52:44;;;;;;;12.73;8.90;;;7.90;99.90;;;;;;5033058;28;20117;-71
2022/04/21 04:55:11;;;;;;;12.63;8.35;;;7.90;99.90;;;;;;5031453;28;20049;-71
2022/04/21 04:57:39;;;;;;;14.30;8.82;;;7.80;99.90;;;;;;5032870;28;20050;-71
2022/04/21 05:00:06;;;;;;;12.93;8.75;;;7.90;99.90;;;;;;5031237;28;20048;-71
2022/04/21 05:02:32;;;;;;;14.57;8.73;;;8.10;99.90;;;;;;5032643;28;20037;-71
2022/04/21 05:04:58;;;;;;;13.82;8.43;;;8.20;99.90;;;;;;5032786;28;20037;-71
2022/04/21 05:07:24;;;;;;;14.60;8.95;;;8.30;99.90;;;;;;5031327;28;20041;-71
2022/04/21 05:09:49;;;;;;;13.30;8.93;;;8.40;99.90;;;;;;5032718;28;20522;-71
2022/04/21 05:12:15;;;;;;;12.60;7.88;;;8.50;99.90;;;;;;5032353;28;20048;-71
2022/04/21 05:14:40;;;;;;;15.30;9.73;;;8.60;99.90;;;;;;5031154;28;20037;-71
2022/04/21 05:17:06;;;;;;;13.07;8.18;;;8.80;99.90;;;;;;5031231;28;20060;-71
2022/04/21 05:19:32;;;;;;;13.32;8.43;;;8.90;99.90;;;;;;5032604;28;20037;-71
2022/04/21 05:22:03;;;;;;;12.75;8.13;;;9.00;99.90;;;;;;5032035;28;20419;-71
2022/04/21 05:24:31;;;;;;;11.02;7.70;;;9.20;99.90;;;;;;5031231;28;20048;-71
2022/04/21 05:26:57;;;;;;;11.65;8.30;;;9.30;99.90;;;;;;5032368;28;20042;-71
2022/04/21 05:32:08;;;;;;;10.05;7.40;;;9.40;99.90;;;;;;5030950;28;20050;-71
2022/04/21 05:34:34;;;;;;;12.07;7.90;;;9.60;99.90;;;;;;5031948;28;20048;-71
2022/04/21 05:37:01;;;;;;;10.98;7.95;;;9.80;99.90;;;;;;5030695;28;20041;-71
2022/04/21 05:39:27;;;;;;;13.13;8.20;;;9.90;99.90;;;;;;5030832;28;20037;-71
2022/04/21 05:41:59;;;;;;;10.27;7.57;;;10.10;99.90;;;;;;5032233;28;20045;-71
2022/04/21 05:44:27;;;;;;;10.50;7.68;;;10.20;99.90;;;;;;5032178;28;20063;-71
2022/04/21 05:46:53;;;;;;;9.48;6.85;;;10.40;99.90;;;;;;5030924;28;20095;-71
2022/04/21 05:49:18;;;;;;;11.65;6.68;;;10.50;99.20;;;;;;5031987;28;20046;-71
2022/04/21 05:51:46;;;;;;;9.93;6.70;;;10.70;98.30;;;;;;5030437;28;20049;-71
2022/04/21 05:54:12;;;;;;;9.45;7.38;;;10.70;97.30;;;;;;5030742;28;20103;-71
2022/04/21 05:56:38;;;;;;;11.02;7.10;;;10.90;97.00;;;;;;5030497;28;20076;-71
2022/04/21 05:59:03;;;;;;;10.27;6.97;;;11.10;96.20;;;;;;5032025;28;20037;-71
2022/04/21 06:01:30;;;;;;;11.27;6.93;;;11.30;94.80;;;;;;5031413;28;20080;-71
2022/04/21 06:03:56;;;;;;;14.75;7.57;;;11.40;93.20;;;;;;5030355;28;20109;-71
2022/04/21 06:06:21;;;;;;;11.10;6.45;;;11.50;93.00;;;;;;5030424;28;20524;-71
2022/04/21 06:08:48;;;;;;;9.88;7.13;;;11.60;92.40;;;;;;5031512;28;20064;-71
2022/04/21 06:11:14;;;;;;;10.40;6.80;;;11.70;91.30;;;;;;5031275;28;20085;-71
2022/04/21 06:13:41;;;;;;;8.77;6.63;;;11.60;90.30;;;;;;5030276;28;20058;-71
2022/04/21 06:16:07;;;;;;;8.60;6.32;;;11.90;89.10;;;;;;5031540;28;20037;-71
2022/04/21 06:18:33;;;;;;;8.10;6.13;;;12.00;85.50;;;;;;5030487;28;20041;-70
2022/04/21 06:21:00;;;;;;;9.80;6.30;;;11.90;84.80;;;;;;5031390;28;20109;-70
2022/04/21 06:23:26;;;;;;;9.82;6.75;;;12.10;83.90;;;;;;5031490;28;20084;-71
2022/04/21 06:25:58;;;;;;;9.60;6.68;;;12.10;82.80;;;;;;5031354;28;20077;-70
2022/04/21 06:28:27;;;;;;;11.20;6.35;;;12.40;81.50;;;;;;5030308;28;20056;-70
2022/04/21 06:30:53;;;;;;;10.02;6.88;;;12.60;79.20;;;;;;5029879;28;20042;-70
2022/04/21 06:33:19;;;;;;;7.70;5.80;;;12.90;76.90;;;;;;5031265;28;20399;-71
2022/04/21 06:35:45;;;;;;;8.50;5.68;;;12.70;74.70;;;;;;5031348;28;20037;-71
2022/04/21 06:38:11;;;;;;;9.65;5.93;;;12.80;74.10;;;;;;5031272;28;20041;-70
2022/04/21 06:40:37;;;;;;;7.90;5.57;;;12.90;74.00;;;;;;5030991;28;20499;-70
2022/04/21 06:48:01;;;;;;;9.82;5.20;;;12.90;71.70;;;;;;5031498;28;20069;-70
2022/04/21 06:48:33;;;;;;;10.20;5.00;;;13.10;69.40;;;;;;5029690;28;20053;-70
2022/04/21 06:50:59;;;;;;;7.47;5.10;;;13.20;68.70;;;;;;5034246;28;20037;-70
2022/04/21 06:53:24;;;;;;;7.40;4.93;;;13.30;67.40;;;;;;5017718;28;20057;-70
2022/04/21 06:55:50;;;;;;;7.00;5.03;;;13.50;65.30;;;;;;5017339;28;20081;-70
2022/04/21 06:58:15;;;;;;;7.35;4.68;;;13.50;64.80;;;;;;5033745;28;20091;-70
2022/04/21 07:00:41;;;;;;;12.57;5.10;;;13.70;64.30;;;;;;5034734;28;20044;-70
2022/04/21 07:03:08;;;;;;;7.43;5.10;;;13.70;63.60;;;;;;5034774;28;20037;-70
2022/04/21 07:05:34;;;;;;;6.18;4.68;;;14.00;62.60;;;;;;5034948;28;20107;-70
2022/04/21 07:08:00;;;;;;;8.52;4.40;;;14.10;60.70;;;;;;5009315;28;20042;-70
2022/04/21 07:10:25;;;;;;;7.07;3.78;;;14.10;60.30;;;;;;5013749;28;20038;-70
2022/04/21 07:12:51;;;;;;;5.35;3.50;;;14.30;60.00;;;;;;4997412;28;20080;-70
2022/04/21 07:15:17;;;;;;;4.63;3.60;;;14.20;59.30;;;;;;5014942;28;20037;-71
2022/04/21 07:17:43;;;;;;;5.43;3.60;;;14.00;58.00;;;;;;5014822;28;20038;-70
2022/04/21 07:20:11;;;;;;;6.97;4.10;;;14.00;58.50;;;;;;5013527;28;20072;-70
2022/04/21 07:22:37;;;;;;;6.40;3.95;;;14.00;58.10;;;;;;5014917;28;20072;-68
2022/04/21 07:25:06;;;;;;;5.68;3.65;;;14.00;58.00;;;;;;5013253;28;20518;-70
2022/04/21 07:27:32;;;;;;;5.18;4.05;;;13.80;58.70;;;;;;5013474;28;20037;-70
2022/04/21 07:29:58;;;;;;;6.28;4.20;;;13.80;58.40;;;;;;5014382;28;20092;-69
2022/04/21 07:32:23;;;;;;;10.43;3.85;;;14.10;59.30;;;;;;5014407;28;20121;-69
2022/04/21 07:34:49;;;;;;;5.55;4.25;;;14.20;58.30;;;;;;5013001;28;20041;-69
2022/04/21 07:37:15;;;;;;;5.38;3.80;;;14.10;57.10;;;;;;5014668;28;20038;-69
2022/04/21 07:39:42;;;;;;;6.38;4.05;;;13.90;57.40;;;;;;5013537;28;20652;-69
2022/04/21 07:42:08;;;;;;;4.07;3.55;;;14.00;57.80;;;;;;5014059;28;20052;-69
2022/04/21 07:44:35;;;;;;;4.93;3.75;;;14.20;57.70;;;;;;4994294;28;20054;-69
2022/04/21 07:47:02;;;;;;;6.15;3.80;;;14.20;57.40;;;;;;4977217;28;20125;-69
2022/04/21 07:49:46;;;;;;;5.07;3.53;;;14.30;57.60;;;;;;4994685;28;20081;-69
2022/04/21 07:55:07;;;;;;;6.10;3.47;;;14.80;56.50;;;;;;4994252;28;20112;-70
2022/04/21 07:57:33;;;;;;;5.43;2.92;;;14.90;55.70;;;;;;4994734;28;20046;-70
2022/04/21 07:59:59;;;;;;;7.00;3.85;;;15.00;55.60;;;;;;4992639;28;20039;-70
2022/04/21 08:02:24;;;;;;;5.65;3.88;;;15.10;54.90;;;;;;4994629;28;20030;-70
2022/04/21 08:04:50;;;;;;;6.07;3.30;;;15.30;55.10;;;;;;4994441;28;20039;-70
2022/04/21 08:07:16;;;;;;;4.88;3.83;;;15.40;55.40;;;;;;4994416;28;20456;-70
2022/04/21 08:09:42;;;;;;;6.03;3.10;;;15.60;54.70;;;;;;5009425;28;20120;-70
2022/04/21 08:12:08;;;;;;;6.40;3.78;;;15.80;54.60;;;;;;4992757;28;20089;-70
2022/04/21 08:14:35;;;;;;;5.75;3.22;;;15.90;53.80;;;;;;4994100;28;20042;-70
2022/04/21 08:17:01;;;;;;;4.72;3.20;;;16.10;53.90;;;;;;4994236;28;20046;-70
2022/04/21 08:19:27;;;;;;;5.47;3.33;;;16.10;52.90;;;;;;4994229;28;20046;-69
2022/04/21 08:21:52;;;;;;;4.82;3.35;;;16.10;52.70;;;;;;4993895;28;20070;-69
2022/04/21 08:32:36;;;;;;;3.63;2.72;;;15.70;50.40;;;;;;4993979;28;20042;-69
2022/04/21 08:35:03;;;;;;;4.38;2.92;;;15.60;50.50;;;;;;4992435;28;20539;-70
2022/04/21 08:37:29;;;;;;;5.35;3.50;;;15.70;50.40;;;;;;4976149;28;20093;-70
2022/04/21 08:39:55;;;;;;;4.80;2.78;;;15.70;50.80;;;;;;4993718;28;20455;-70
2022/04/21 08:42:22;;;;;;;6.15;3.03;;;15.70;50.70;;;;;;4993708;28;20402;-70
2022/04/21 08:44:49;;;;;;;4.57;3.03;;;15.60;51.00;;;;;;4992254;28;20053;-70
2022/04/21 08:47:18;;;;;;;4.18;3.03;;;15.70;51.10;;;;;;4993499;28;20121;-70
2022/04/21 08:49:48;;;;;;;4.70;3.20;;;15.70;50.60;;;;;;4993431;28;20085;-70
2022/04/21 08:52:16;;;;;;;5.78;3.33;;;15.90;51.40;;;;;;4993332;28;20039;-70
2022/04/21 08:54:42;;;;;;;4.45;3.30;;;16.00;51.00;;;;;;4993240;28;20554;-70
2022/04/21 08:57:09;;;;;;;3.92;3.08;;;15.80;51.20;;;;;;5008745;28;20050;-70
2022/04/21 08:59:35;;;;;;;5.85;3.55;;;16.00;52.00;;;;;;4992094;28;20043;-70
2022/04/21 09:02:01;;;;;;;4.45;3.17;;;16.10;51.50;;;;;;4993004;28;20045;-70
2022/04/21 09:04:29;;;;;;;7.40;3.72;;;16.00;51.30;;;;;;4975778;28;20042;-72
2022/04/21 09:06:54;;;;;;;4.78;3.10;;;16.10;51.40;;;;;;4993314;28;20527;-70
2022/04/21 09:09:21;;;;;;;6.10;3.20;;;16.10;52.40;;;;;;5008360;28;20037;-70
2022/04/21 09:11:53;;;;;;;7.85;4.18;;;16.40;52.00;;;;;;5022193;28;20529;-70
2022/04/21 09:14:20;;;;;;;7.37;3.30;;;16.20;50.40;;;;;;5027520;28;20046;-70
2022/04/21 09:16:47;;;;;;;6.53;3.40;;;15.90;50.90;;;;;;5022686;28;20073;-71
2022/04/21 09:19:16;;;;;;;6.00;3.25;;;16.00;51.70;;;;;;5026080;28;20046;-66
2022/04/21 09:21:42;;;;;;;5.72;3.72;;;16.30;52.30;;;;;;5032090;28;20152;-67
2022/04/21 09:24:24;;;;;;;6.63;3.35;;;16.60;51.70;;;;;;5018834;28;20113;-69
2022/04/21 09:26:50;;;;;;;4.47;3.10;;;16.40;51.90;;;;;;5003228;28;20553;-69
2022/04/21 09:29:30;;;;;;;5.72;3.55;;;16.30;50.90;;;;;;5002675;28;20447;-69
2022/04/21 09:32:02;;;;;;;10.70;3.65;;;16.50;51.10;;;;;;5003109;28;20034;-69
2022/04/21 09:34:29;;;;;;;5.30;3.33;;;16.50;49.90;;;;;;5000318;28;20080;-69
2022/04/21 09:36:59;;;;;;;5.53;3.30;;;16.30;49.30;;;;;;5002567;28;20095;-69
2022/04/21 09:39:27;;;;;;;4.75;3.40;;;16.10;50.30;;;;;;5003665;28;20045;-69
2022/04/21 09:41:56;;;;;;;4.25;3.50;;;16.00;51.20;;;;;;5012388;28;20038;-69
2022/04/21 09:47:19;;;;;;;6.00;3.55;;;16.20;52.90;;;;;;5012302;28;20042;-69
2022/04/21 09:49:46;;;;;;;4.65;3.40;;;16.20;51.40;;;;;;5010866;28;20038;-69
2022/04/21 09:52:12;;;;;;;4.38;3.30;;;16.30;51.80;;;;;;5012188;28;20042;-67
2022/04/21 09:54:40;;;;;;;5.60;3.40;;;16.10;51.60;;;;;;5012151;28;20081;-69
2022/04/21 09:57:07;;;;;;;4.07;3.45;;;16.00;51.80;;;;;;5012003;28;20045;-69
2022/04/21 09:59:36;;;;;;;4.30;3.50;;;16.10;53.20;;;;;;5012014;28;20034;-67
2022/04/21 10:02:03;;;;;;;6.43;3.58;;;16.10;52.30;;;;;;5011788;28;20030;-67
2022/04/21 10:04:29;;;;;;;5.35;3.95;;;16.20;53.00;;;;;;5010716;28;20050;-67
2022/04/21 10:06:56;;;;;;;8.13;3.80;;;16.20;52.40;;;;;;5012263;28;20042;-66
2022/04/21 10:09:23;;;;;;;3.88;3.10;;;16.00;51.30;;;;;;5012017;28;20037;-67
2022/04/21 10:11:51;;;;;;;8.57;2.83;;;16.00;50.70;;;;;;5011750;28;20041;-66
2022/04/21 10:14:17;;;;;;;4.10;2.70;;;16.00;51.10;;;;;;5011603;28;20069;-70
2022/04/21 10:16:44;;;;;;;5.07;3.10;;;16.00;51.30;;;;;;5009724;28;20041;-67
2022/04/21 10:19:12;;;;;;;3.70;2.95;;;15.90;50.80;;;;;;5009788;28;20128;-67
2022/04/21 10:21:56;;;;;;;3.47;2.97;;;15.80;51.60;;;;;;5011722;28;20042;-69
2022/04/21 10:24:26;;;;;;;5.65;3.30;;;15.90;51.20;;;;;;5014024;28;20644;-69
2022/04/21 10:26:52;;;;;;;5.60;2.70;;;16.00;51.40;;;;;;5015724;28;20088;-68
2022/04/21 10:29:18;;;;;;;4.03;2.88;;;15.90;51.60;;;;;;5014399;28;20041;-68
2022/04/21 10:32:05;;;;;;;5.57;3.25;;;15.90;52.00;;;;;;5015640;28;20042;-68
2022/04/21 10:34:37;;;;;;;5.65;3.22;;;16.00;52.70;;;;;;5042785;23;20045;-76
2022/04/21 10:37:22;;;;;;;5.28;3.50;;;16.10;51.60;;;;;;5032857;28;20053;-76
2022/04/21 10:40:06;;;;;;;4.68;3.10;;;16.10;51.80;;;;;;5035210;28;20056;-77
2022/04/21 10:43:03;;;;;;;4.07;3.03;;;16.20;51.90;;;;;;5034021;28;20048;-76
2022/04/21 10:45:31;;;;;;;4.90;3.13;;;16.30;52.70;;;;;;5035338;28;20049;-76
2022/04/21 10:48:07;;;;;;;5.10;2.90;;;16.20;51.50;;;;;;5035245;28;20041;-77
2022/04/21 10:50:34;;;;;;;5.35;3.20;;;16.10;50.40;;;;;;5016977;28;20049;-77
2022/04/21 10:58:34;;;;;;;4.68;3.45;;;16.30;50.80;;;;;;5033551;28;20502;-77
2022/04/21 11:01:11;;;;;;;6.10;3.17;;;16.20;50.10;;;;;;5016916;28;20042;-76
2022/04/21 11:03:38;;;;;;;6.47;3.60;;;16.20;50.60;;;;;;5017222;28;20515;-76
2022/04/21 11:06:08;;;;;;;5.10;3.20;;;16.20;51.00;;;;;;5017330;28;20038;-76
2022/04/21 11:08:34;;;;;;;7.28;3.63;;;16.30;50.90;;;;;;5033600;28;20045;-76
2022/04/21 11:11:00;;;;;;;4.43;2.60;;;16.30;49.60;;;;;;5033366;28;20128;-76
2022/04/21 11:14:03;;;;;;;5.60;3.15;;;16.30;49.80;;;;;;5033459;28;20056;-76
2022/04/21 11:16:40;;;;;;;5.43;3.75;;;16.30;49.50;;;;;;5033596;28;20394;-76
2022/04/21 11:19:45;;;;;;;5.05;3.20;;;16.30;50.50;;;;;;5033465;28;20045;-76
2022/04/21 11:22:13;;;;;;;4.25;2.88;;;16.40;50.70;;;;;;5033711;28;20128;-77
2022/04/21 11:25:01;;;;;;;4.05;3.47;;;16.40;50.60;;;;;;5033551;28;20045;-76
2022/04/21 11:27:27;;;;;;;6.00;3.30;;;16.40;50.50;;;;;;5016956;28;20410;-76
2022/04/21 11:30:03;;;;;;;5.60;3.42;;;16.30;51.20;;;;;;5033110;28;20052;-76
2022/04/21 11:32:29;;;;;;;4.47;3.38;;;16.40;51.70;;;;;;5033486;28;20399;-76
2022/04/21 11:34:59;;;;;;;6.15;3.47;;;16.50;50.90;;;;;;5032299;28;20088;-76
2022/04/21 11:37:47;;;;;;;3.85;3.05;;;16.50;51.20;;;;;;5033047;28;20577;-76
2022/04/21 11:40:22;;;;;;;4.32;3.45;;;16.40;50.50;;;;;;5032775;28;20041;-76
2022/04/21 11:42:49;;;;;;;5.10;2.80;;;16.50;50.40;;;;;;5016693;28;20049;-76
2022/04/21 11:45:25;;;;;;;6.00;3.30;;;16.60;49.90;;;;;;5032767;28;20076;-76
2022/04/21 11:47:51;;;;;;;3.75;3.00;;;16.50;50.00;;;;;;5016435;28;20041;-76
2022/04/21 11:50:26;;;;;;;9.75;4.20;;;16.50;50.70;;;;;;5032467;28;20045;-76
2022/04/21 11:52:53;;;;;;;4.95;3.47;;;16.50;50.20;;;;;;5032819;28;20073;-76
2022/04/21 11:55:20;;;;;;;5.45;3.97;;;16.50;50.70;;;;;;5016265;28;20037;-76
2022/04/21 11:57:47;;;;;;;5.63;3.70;;;16.50;50.70;;;;;;5033138;28;20052;-75
2022/04/21 12:00:15;;;;;;;5.10;3.78;;;16.40;50.50;;;;;;5020022;28;20037;-79
2022/04/21 12:08:13;;;;;;;8.82;3.13;;;16.60;51.80;;;;;;5021749;28;20041;-76
2022/04/21 12:10:40;;;;;;;4.53;2.97;;;16.70;49.60;;;;;;5021044;28;20037;-76
2022/04/21 12:13:06;;;;;;;8.27;3.30;;;16.50;48.30;;;;;;5021698;28;20044;-76
2022/04/21 12:15:36;;;;;;;6.28;3.55;;;16.50;49.00;;;;;;5006473;28;20033;-75
2022/04/21 12:18:02;;;;;;;5.63;3.75;;;16.50;49.80;;;;;;5022408;28;20500;-75
2022/04/21 12:20:28;;;;;;;4.43;3.58;;;16.50;50.20;;;;;;5015496;28;20044;-76
2022/04/21 12:22:55;;;;;;;4.72;3.42;;;16.50;50.30;;;;;;5032521;28;20040;-76
2022/04/21 12:25:30;;;;;;;5.95;3.50;;;16.50;50.20;;;;;;5032125;28;20056;-76
2022/04/21 12:27:56;;;;;;;4.90;3.47;;;16.50;50.20;;;;;;5015829;28;20045;-76
2022/04/21 12:30:21;;;;;;;6.00;3.10;;;16.40;50.70;;;;;;5032110;28;20438;-77
2022/04/21 12:32:49;;;;;;;3.33;3.03;;;16.10;50.40;;;;;;5032088;28;20047;-76
2022/04/21 12:35:15;;;;;;;4.63;2.85;;;16.20;50.70;;;;;;5031663;28;20037;-76
2022/04/21 12:37:44;;;;;;;4.57;2.90;;;16.20;49.90;;;;;;5015378;28;20042;-76
2022/04/21 12:40:14;;;;;;;7.88;3.15;;;16.10;50.20;;;;;;5031695;28;20511;-76
2022/04/21 12:42:40;;;;;;;4.72;3.80;;;16.00;51.00;;;;;;5031955;28;20076;-77
2022/04/21 12:45:08;;;;;;;6.10;3.30;;;16.00;51.00;;;;;;5015533;28;20139;-77
2022/04/21 12:47:47;;;;;;;5.05;3.20;;;16.00;51.10;;;;;;5030695;28;20175;-77
2022/04/21 12:50:23;;;;;;;6.63;4.20;;;16.20;51.00;;;;;;5031766;28;20398;-77
2022/04/21 12:52:52;;;;;;;4.47;3.40;;;16.10;51.20;;;;;;5032011;28;20086;-77
2022/04/21 12:55:19;;;;;;;5.95;3.92;;;16.10;51.50;;;;;;5031856;28;20103;-77
2022/04/21 12:58:09;;;;;;;5.15;3.58;;;16.20;51.20;;;;;;5032170;28;20049;-77
2022/04/21 13:00:37;;;;;;;8.25;3.47;;;16.30;51.20;;;;;;5031565;28;20042;-77
2022/04/21 13:03:04;;;;;;;6.25;3.35;;;16.40;50.20;;;;;;5015831;28;20064;-77
2022/04/21 13:05:31;;;;;;;6.00;3.22;;;16.40;49.50;;;;;;5031503;28;20052;-77
2022/04/21 13:07:57;;;;;;;4.78;3.05;;;16.40;49.50;;;;;;5031343;28;20127;-77
2022/04/21 13:10:23;;;;;;;6.15;3.67;;;16.40;49.50;;;;;;5014639;28;20120;-77
2022/04/21 13:12:48;;;;;;;7.00;3.90;;;16.50;50.00;;;;;;5031402;28;20469;-77
2022/04/21 13:15:14;;;;;;;7.60;4.43;;;16.30;50.40;;;;;;5031168;28;20038;-77
2022/04/21 13:17:40;;;;;;;5.30;4.13;;;16.30;50.60;;;;;;5031307;28;20469;-77
2022/04/21 13:20:07;;;;;;;5.60;4.05;;;16.30;50.40;;;;;;5030888;28;20084;-77
2022/04/21 13:22:32;;;;;;;7.40;4.32;;;16.40;50.70;;;;;;5031096;28;20052;-77
2022/04/21 13:24:58;;;;;;;6.00;4.22;;;16.40;50.40;;;;;;5031014;28;20041;-76
2022/04/21 13:27:26;;;;;;;5.68;4.03;;;16.50;51.30;;;;;;5031354;28;20129;-76
2022/04/21 13:29:52;;;;;;;6.72;4.32;;;16.40;52.00;;;;;;5031131;28;20082;-77
2022/04/21 13:35:01;;;;;;;5.55;4.50;;;16.80;51.30;;;;;;5030790;28;20499;-76
2022/04/21 13:37:27;;;;;;;6.10;5.22;;;16.90;50.40;;;;;;5030989;28;20052;-77
2022/04/21 13:39:53;;;;;;;6.00;4.95;;;16.90;50.50;;;;;;5019470;28;20120;-77
2022/04/21 13:42:18;;;;;;;7.00;5.15;;;16.90;50.50;;;;;;5020896;28;20041;-76
2022/04/21 13:44:44;;;;;;;7.07;5.10;;;17.00;50.60;;;;;;5008493;28;20038;-76